Time;durP1;ratioP1;P1;durP2;ratioP2;P2;SDS_P1;SDS_P2;PMS_P1;PMS_P2;Temp;Humidity;BMP_temperature;BMP_pressure;BME280_temperature;BME280_humidity;BME280_pressure;Samples;Min_cycle;Max_cycle;Signal;HPM_P1;HPM_P2
2023/09/30 00:00:11;;;;;;;15.88;5.80;;;;;;;23.00;49.90;102045.50;5073378;28;20122;-48
2023/09/30 00:02:39;;;;;;;12.60;5.35;;;;;;;23.04;49.88;102048.41;5073372;28;20055;-51
2023/09/30 00:05:08;;;;;;;14.63;5.75;;;;;;;22.95;50.16;102047.78;5092739;28;20040;-49
2023/09/30 00:07:35;;;;;;;12.05;4.97;;;;;;;23.12;49.89;102059.44;5095625;28;20048;-45
2023/09/30 00:10:03;;;;;;;13.00;5.00;;;;;;;23.00;49.95;102056.75;5094788;28;20051;-46
2023/09/30 00:12:30;;;;;;;12.18;4.97;;;;;;;22.84;50.12;102055.16;5096031;28;20044;-49
2023/09/30 00:14:58;;;;;;;16.40;5.68;;;;;;;22.73;50.63;102068.94;5060582;28;20128;-49
2023/09/30 00:17:25;;;;;;;15.75;5.18;;;;;;;22.72;50.56;102056.06;5075923;28;20055;-50
2023/09/30 00:19:53;;;;;;;11.80;5.22;;;;;;;22.65;50.83;102064.28;5094769;28;20055;-48
2023/09/30 00:22:20;;;;;;;11.10;5.05;;;;;;;22.50;51.06;102058.66;5077144;28;20048;-46
2023/09/30 00:24:49;;;;;;;12.10;5.07;;;;;;;22.65;51.11;102061.50;5075948;28;20040;-51
2023/09/30 00:27:17;;;;;;;13.63;4.90;;;;;;;22.68;50.86;102054.34;5072537;28;20044;-50
2023/09/30 00:29:44;;;;;;;11.98;4.95;;;;;;;22.75;50.78;102062.94;5086444;28;20043;-45
2023/09/30 00:32:12;;;;;;;12.90;4.78;;;;;;;22.75;50.80;102065.75;5089219;28;20058;-43
2023/09/30 00:34:40;;;;;;;10.10;4.85;;;;;;;22.90;50.93;102074.19;5076727;28;20404;-48
2023/09/30 00:37:07;;;;;;;13.48;5.45;;;;;;;23.02;50.29;102060.00;5093544;28;20051;-50
2023/09/30 00:39:35;;;;;;;12.02;4.85;;;;;;;23.01;50.61;102063.19;5094441;28;20048;-43
2023/09/30 00:42:04;;;;;;;11.85;5.28;;;;;;;22.95;50.55;102062.66;5087533;28;20056;-49
2023/09/30 00:44:33;;;;;;;14.35;5.55;;;;;;;23.06;50.43;102060.09;5094616;28;20052;-50
2023/09/30 00:47:00;;;;;;;12.50;5.05;;;;;;;23.06;50.16;102044.06;5086575;28;20056;-50
2023/09/30 00:49:29;;;;;;;13.90;4.57;;;;;;;22.91;50.54;102050.50;5069782;28;20060;-57
2023/09/30 00:51:56;;;;;;;12.13;4.93;;;;;;;22.91;51.12;102060.94;5084776;28;20040;-51
2023/09/30 00:54:25;;;;;;;11.57;5.10;;;;;;;22.76;51.15;102048.53;5091112;28;20541;-47
2023/09/30 00:56:55;;;;;;;13.93;5.40;;;;;;;22.70;51.50;102041.53;5060193;28;20056;-46
2023/09/30 00:59:22;;;;;;;;;;;;;;;22.80;51.18;102034.56;5074168;28;20059;-52
2023/09/30 01:01:50;;;;;;;12.77;5.00;;;;;;;22.62;52.32;102022.91;5076059;28;19927;-54
2023/09/30 01:04:18;;;;;;;13.82;5.13;;;;;;;22.64;52.38;102023.34;5075077;28;20446;-51
2023/09/30 01:06:47;;;;;;;12.90;5.10;;;;;;;22.74;51.84;102041.63;5076158;28;20052;-49
2023/09/30 01:09:14;;;;;;;14.38;5.20;;;;;;;22.61;51.99;102065.41;5094488;28;20040;-52
2023/09/30 01:11:42;;;;;;;15.77;5.22;;;;;;;22.59;52.37;102062.13;5094024;28;20047;-52
2023/09/30 01:14:34;;;;;;;15.32;4.70;;;;;;;22.59;52.48;102062.13;5093897;28;20514;-51
2023/09/30 01:17:01;;;;;;;10.45;4.55;;;;;;;22.51;52.52;102054.69;5080490;28;20114;-53
2023/09/30 01:19:29;;;;;;;13.30;4.93;;;;;;;22.57;52.53;102058.88;5094395;28;20040;-51
2023/09/30 01:21:59;;;;;;;9.65;4.32;;;;;;;22.67;51.86;102070.38;5058720;28;20495;-51
2023/09/30 01:24:28;;;;;;;13.88;4.93;;;;;;;22.45;51.98;102068.16;5094234;28;20071;-48
2023/09/30 01:26:57;;;;;;;10.88;4.60;;;;;;;22.46;51.67;102078.22;5094213;28;20059;-53
2023/09/30 01:29:26;;;;;;;14.07;5.23;;;;;;;22.45;51.86;102067.34;5075669;28;20059;-51
2023/09/30 01:31:53;;;;;;;10.48;4.78;;;;;;;22.36;52.13;102070.31;5093579;28;20598;-48
2023/09/30 01:34:22;;;;;;;12.68;4.72;;;;;;;22.35;52.21;102060.28;5094517;28;20051;-53
2023/09/30 01:36:50;;;;;;;14.45;4.18;;;;;;;22.40;51.76;102056.38;5075853;28;20066;-49
2023/09/30 01:39:17;;;;;;;11.70;4.47;;;;;;;22.49;51.55;102052.19;5076032;28;20052;-49
2023/09/30 01:41:45;;;;;;;11.82;4.80;;;;;;;22.48;51.92;102050.59;5085855;28;20052;-48
2023/09/30 01:44:12;;;;;;;11.82;4.78;;;;;;;22.52;51.82;102043.09;5080232;28;20058;-51
2023/09/30 01:46:40;;;;;;;10.68;4.40;;;;;;;22.67;51.60;102028.25;5093814;28;20523;-47
2023/09/30 01:49:07;;;;;;;11.63;4.63;;;;;;;22.70;52.46;102024.69;5093291;28;20510;-53
2023/09/30 01:51:34;;;;;;;14.00;4.55;;;;;;;22.66;52.31;102035.03;5093916;28;20052;-47
2023/09/30 01:54:02;;;;;;;14.80;4.93;;;;;;;22.51;52.67;102032.22;5075227;28;20054;-50
2023/09/30 01:56:30;;;;;;;12.15;4.55;;;;;;;22.18;53.34;102030.53;5093536;28;20651;-53
2023/09/30 01:58:59;;;;;;;10.48;4.75;;;;;;;22.28;53.37;102026.41;5075511;28;20048;-49
2023/09/30 02:01:26;;;;;;;11.85;4.70;;;;;;;22.25;53.41;102019.50;5074624;28;20423;-56
2023/09/30 02:03:54;;;;;;;12.05;4.40;;;;;;;22.30;53.35;102024.84;5093161;28;20558;-46
2023/09/30 02:06:21;;;;;;;13.55;4.32;;;;;;;22.37;53.03;102023.41;5093081;28;20060;-43
2023/09/30 02:08:49;;;;;;;15.50;5.15;;;;;;;22.40;53.01;102029.13;5081549;28;20048;-48
2023/09/30 02:11:19;;;;;;;12.55;5.00;;;;;;;22.18;53.15;102030.53;5091980;28;20693;-50
2023/09/30 02:13:54;;;;;;;12.90;4.38;;;;;;;22.22;53.48;102037.09;5045760;28;20040;-48
2023/09/30 02:16:25;;;;;;;11.68;4.43;;;;;;;22.27;53.27;102042.44;5058653;28;20047;-51
2023/09/30 02:18:53;;;;;;;11.23;4.35;;;;;;;22.30;53.22;102040.88;5092986;28;20051;-52
2023/09/30 02:21:22;;;;;;;11.27;4.80;;;;;;;22.32;53.29;102041.34;5074564;28;20059;-52
2023/09/30 02:23:54;;;;;;;10.77;4.37;;;;;;;22.35;53.03;102033.00;5074710;28;20123;-54
2023/09/30 02:26:25;;;;;;;12.82;4.72;;;;;;;22.36;52.73;102042.25;5074327;28;20782;-51
2023/09/30 02:28:53;;;;;;;12.73;4.13;;;;;;;22.28;53.04;102046.84;5091687;28;20414;-53
2023/09/30 02:31:21;;;;;;;10.00;4.00;;;;;;;22.25;52.90;102038.34;5092454;28;20039;-51
2023/09/30 02:33:48;;;;;;;12.50;4.32;;;;;;;22.44;52.26;102027.22;5050182;28;20040;-52
2023/09/30 02:36:15;;;;;;;11.85;4.07;;;;;;;22.19;52.92;102028.56;5074459;28;20047;-52
2023/09/30 02:38:43;;;;;;;11.00;4.63;;;;;;;22.18;52.29;102024.94;5092992;28;20417;-52
2023/09/30 02:41:10;;;;;;;13.85;4.70;;;;;;;22.11;52.47;102026.72;5092517;28;20052;-51
2023/09/30 02:43:38;;;;;;;11.05;4.53;;;;;;;22.11;52.34;102029.53;5092108;28;20421;-52
2023/09/30 02:46:05;;;;;;;13.20;4.38;;;;;;;22.18;52.55;102019.31;5053933;28;20048;-51
2023/09/30 02:48:33;;;;;;;17.73;5.15;;;;;;;22.23;51.86;102021.84;5076761;28;20052;-55
2023/09/30 02:51:00;;;;;;;14.13;4.78;;;;;;;22.19;52.42;102034.97;5074910;28;20036;-50
2023/09/30 02:53:27;;;;;;;14.23;4.22;;;;;;;21.98;52.54;102036.41;5056781;28;20044;-55
2023/09/30 02:55:59;;;;;;;12.40;5.00;;;;;;;22.18;52.40;102029.72;5073662;28;20453;-53
2023/09/30 02:58:26;;;;;;;13.15;4.45;;;;;;;22.39;52.34;102046.34;5074159;28;20044;-54
2023/09/30 03:00:53;;;;;;;13.20;4.38;;;;;;;22.48;52.22;102038.53;5092429;28;20056;-52
2023/09/30 03:03:21;;;;;;;10.55;4.53;;;;;;;22.20;52.66;102039.44;5092198;28;20134;-53
2023/09/30 03:05:50;;;;;;;14.60;4.60;;;;;;;22.23;52.69;102054.72;5083963;28;20048;-48
2023/09/30 03:08:17;;;;;;;13.70;4.75;;;;;;;22.05;53.22;102056.25;5091576;28;20538;-47
2023/09/30 03:10:45;;;;;;;9.95;4.13;;;;;;;21.94;53.18;102050.31;5074066;28;20498;-49
2023/09/30 03:13:13;;;;;;;12.95;4.72;;;;;;;21.88;53.60;102051.75;5092014;28;20036;-50
2023/09/30 03:15:40;;;;;;;11.00;4.72;;;;;;;22.12;53.02;102060.03;5073499;28;20415;-49
2023/09/30 03:18:08;;;;;;;13.30;4.53;;;;;;;22.26;52.76;102056.81;5091116;28;20052;-49
2023/09/30 03:20:40;;;;;;;12.23;4.22;;;;;;;22.29;52.67;102053.28;5091650;28;20048;-48
2023/09/30 03:23:08;;;;;;;10.85;4.38;;;;;;;22.04;53.17;102058.22;5073408;28;20044;-48
2023/09/30 03:25:36;;;;;;;11.82;4.30;;;;;;;22.03;53.69;102061.38;5091680;28;20048;-50
2023/09/30 03:28:06;;;;;;;11.75;4.95;;;;;;;21.99;53.48;102069.72;5091615;28;20044;-50
2023/09/30 03:30:34;;;;;;;15.10;4.40;;;;;;;21.94;53.79;102066.34;5091791;28;20051;-51
2023/09/30 03:33:04;;;;;;;10.82;3.92;;;;;;;22.18;52.89;102066.22;5073920;28;20036;-50
2023/09/30 03:35:32;;;;;;;;;;;;;;;22.02;53.22;102068.97;5074522;28;20051;-54
2023/09/30 03:38:01;;;;;;;11.70;4.40;;;;;;;22.05;53.46;102073.91;5072757;28;19927;-51
2023/09/30 03:40:33;;;;;;;12.10;4.43;;;;;;;21.98;53.29;102084.09;5098654;28;20032;-54
2023/09/30 03:43:01;;;;;;;9.70;4.32;;;;;;;22.08;53.13;102086.38;5098680;28;20055;-48
2023/09/30 03:45:28;;;;;;;12.27;4.65;;;;;;;22.05;52.79;102087.94;5063360;28;20059;-51
2023/09/30 03:47:55;;;;;;;11.75;4.22;;;;;;;21.94;52.90;102078.38;5097836;28;20048;-52
2023/09/30 03:50:24;;;;;;;11.95;4.38;;;;;;;21.91;53.30;102065.09;5098852;28;20051;-50
2023/09/30 03:52:51;;;;;;;9.55;4.03;;;;;;;21.85;53.35;102076.91;5098276;28;20055;-54
2023/09/30 03:55:20;;;;;;;11.27;4.32;;;;;;;21.88;53.26;102064.97;5097822;28;20044;-51
2023/09/30 03:57:50;;;;;;;12.43;4.32;;;;;;;21.75;53.08;102061.38;5080431;28;20047;-49
2023/09/30 04:00:19;;;;;;;9.63;3.80;;;;;;;21.90;53.10;102057.81;5098374;28;20065;-54
2023/09/30 04:02:54;;;;;;;13.07;4.30;;;;;;;21.72;53.33;102050.03;5079262;28;20063;-53
2023/09/30 04:05:29;;;;;;;12.25;4.03;;;;;;;21.65;53.62;102050.66;5079861;28;20067;-53
2023/09/30 04:07:57;;;;;;;10.38;4.28;;;;;;;21.72;53.39;102042.47;5097671;28;20050;-51
2023/09/30 04:10:25;;;;;;;12.02;4.13;;;;;;;22.04;52.78;102041.38;5079602;28;20047;-54
2023/09/30 04:12:52;;;;;;;11.60;3.92;;;;;;;22.26;52.64;102040.78;5097801;28;20063;-54
2023/09/30 04:15:20;;;;;;;8.40;3.78;;;;;;;22.42;52.10;102032.38;5098013;28;20052;-51
2023/09/30 04:17:48;;;;;;;13.95;4.55;;;;;;;22.42;51.71;102009.91;5097753;28;20043;-48
2023/09/30 04:20:16;;;;;;;12.02;4.47;;;;;;;22.54;51.38;102015.47;5080761;28;20039;-50
2023/09/30 04:22:48;;;;;;;12.45;4.05;;;;;;;22.71;50.94;102009.50;5097920;28;20047;-54
2023/09/30 04:25:16;;;;;;;10.65;4.05;;;;;;;22.74;50.99;102010.72;5097848;28;20055;-48
2023/09/30 04:27:44;;;;;;;11.52;4.55;;;;;;;22.67;50.86;102002.13;5080699;28;20056;-49
2023/09/30 04:30:12;;;;;;;10.93;4.57;;;;;;;22.69;51.06;101991.34;5076178;28;20067;-46
2023/09/30 04:32:39;;;;;;;10.57;3.95;;;;;;;22.68;50.65;101992.53;5071715;28;20053;-51
2023/09/30 04:35:10;;;;;;;13.15;4.22;;;;;;;22.73;50.49;101992.25;5093755;28;20494;-53
2023/09/30 04:37:38;;;;;;;12.60;3.65;;;;;;;22.72;50.48;101991.44;5097302;28;20051;-49
2023/09/30 04:40:07;;;;;;;13.27;4.68;;;;;;;22.65;50.64;101996.09;5093567;28;20055;-49
2023/09/30 04:42:37;;;;;;;14.00;4.35;;;;;;;22.65;50.73;102004.50;5097702;28;20044;-47
2023/09/30 04:45:09;;;;;;;12.45;4.32;;;;;;;22.72;50.15;102013.09;5096358;28;20044;-50
2023/09/30 04:47:38;;;;;;;13.57;4.47;;;;;;;22.64;50.67;102030.97;5097241;28;20553;-53
2023/09/30 04:50:07;;;;;;;11.77;4.85;;;;;;;22.66;50.25;102031.41;5095425;28;20044;-54
2023/09/30 04:52:35;;;;;;;12.73;4.72;;;;;;;22.57;50.92;102031.59;5094416;28;20051;-50
2023/09/30 04:55:05;;;;;;;13.43;4.05;;;;;;;22.73;50.19;102032.41;5087304;28;20593;-48
2023/09/30 04:57:33;;;;;;;8.90;4.18;;;;;;;22.71;50.29;102036.75;5093455;28;20530;-51
2023/09/30 05:00:00;;;;;;;15.77;4.55;;;;;;;22.70;50.14;102040.75;5093795;28;20055;-50
2023/09/30 05:02:28;;;;;;;13.73;4.63;;;;;;;22.50;50.59;102039.00;5094396;28;20406;-53
2023/09/30 05:04:55;;;;;;;16.67;4.35;;;;;;;22.62;50.38;102027.69;5089057;28;20060;-51
2023/09/30 05:07:23;;;;;;;10.65;4.03;;;;;;;22.59;50.48;102023.63;5085254;28;20051;-53
2023/09/30 05:09:50;;;;;;;14.93;4.13;;;;;;;22.63;50.24;102013.28;5093886;28;20051;-53
2023/09/30 05:12:17;;;;;;;13.13;4.47;;;;;;;22.76;50.12;102028.03;5090511;28;20066;-52
2023/09/30 05:14:45;;;;;;;13.82;5.18;;;;;;;22.81;49.53;102014.53;5093617;28;20044;-50
2023/09/30 05:17:13;;;;;;;11.63;4.07;;;;;;;22.73;49.96;102028.78;5093743;28;20043;-49
2023/09/30 05:19:40;;;;;;;14.13;4.30;;;;;;;22.70;50.00;102030.31;5074888;28;20620;-51
2023/09/30 05:22:07;;;;;;;15.32;4.57;;;;;;;22.62;50.25;102030.50;5093936;28;20066;-53
2023/09/30 05:24:35;;;;;;;14.38;4.53;;;;;;;22.70;50.08;102029.53;5075749;28;20052;-50
2023/09/30 05:27:02;;;;;;;14.15;4.53;;;;;;;22.63;50.46;102024.50;5074854;28;20075;-51
2023/09/30 05:29:33;;;;;;;11.77;4.43;;;;;;;22.67;50.24;102030.22;5093544;28;20074;-52
2023/09/30 05:32:00;;;;;;;14.77;4.65;;;;;;;22.66;50.29;102051.91;5093417;28;20055;-52
2023/09/30 05:34:28;;;;;;;18.27;5.30;;;;;;;22.65;50.31;102053.06;5093668;28;20040;-48
2023/09/30 05:36:55;;;;;;;11.77;4.20;;;;;;;22.56;50.63;102054.44;5092440;28;20059;-51
2023/09/30 05:39:22;;;;;;;14.85;4.95;;;;;;;22.69;50.05;102051.16;5093354;28;20070;-52
2023/09/30 05:41:50;;;;;;;12.75;5.40;;;;;;;22.72;50.33;102049.59;5092605;28;20052;-53
2023/09/30 05:44:17;;;;;;;14.07;4.07;;;;;;;22.71;50.06;102057.25;5088003;28;20506;-52
2023/09/30 05:46:45;;;;;;;11.68;4.18;;;;;;;22.50;50.43;102067.91;5090098;28;20048;-55
2023/09/30 05:49:14;;;;;;;12.33;4.40;;;;;;;22.46;50.96;102057.72;5075461;28;20039;-53
2023/09/30 05:51:41;;;;;;;12.05;5.03;;;;;;;22.60;50.68;102036.47;5092207;28;20514;-52
2023/09/30 05:54:12;;;;;;;13.73;4.80;;;;;;;22.66;50.45;102032.25;5092381;28;20044;-50
2023/09/30 05:56:42;;;;;;;13.20;4.55;;;;;;;22.37;50.89;102020.63;5093002;28;20048;-52
2023/09/30 05:59:10;;;;;;;13.43;4.68;;;;;;;22.32;51.33;102030.94;5090367;28;20055;-53
2023/09/30 06:01:39;;;;;;;20.88;4.75;;;;;;;22.37;51.35;102024.22;5092152;28;20052;-54
2023/09/30 06:04:06;;;;;;;10.60;4.63;;;;;;;22.57;50.41;102030.78;5084719;28;20055;-49
2023/09/30 06:06:34;;;;;;;12.57;4.55;;;;;;;22.74;50.36;102019.16;5092946;28;20052;-50
2023/09/30 06:09:01;;;;;;;12.20;4.43;;;;;;;22.87;49.76;102029.94;5091888;28;20046;-53
2023/09/30 06:11:28;;;;;;;12.95;4.20;;;;;;;22.75;50.07;102038.47;5088596;28;20053;-49
2023/09/30 06:13:59;;;;;;;11.73;4.60;;;;;;;22.59;50.45;102032.06;5092100;28;20043;-52
2023/09/30 06:16:27;;;;;;;11.63;5.28;;;;;;;22.71;49.94;102034.78;5091972;28;20153;-51
2023/09/30 06:18:54;;;;;;;15.65;5.47;;;;;;;22.64;50.33;102030.97;5091725;28;20044;-51
2023/09/30 06:21:22;;;;;;;10.90;4.45;;;;;;;22.50;50.63;102041.81;5092660;28;20044;-48
2023/09/30 06:23:53;;;;;;;12.20;4.53;;;;;;;22.35;51.18;102055.47;5072959;28;20044;-49
2023/09/30 06:26:24;;;;;;;12.63;4.53;;;;;;;22.41;50.75;102058.81;5092723;28;20048;-49
2023/09/30 06:28:54;;;;;;;11.00;4.80;;;;;;;22.31;51.15;102037.72;5080383;28;20079;-47
2023/09/30 06:31:21;;;;;;;11.75;4.88;;;;;;;22.54;50.67;102028.66;5091294;28;20055;-46
2023/09/30 06:33:48;;;;;;;11.50;4.45;;;;;;;22.43;51.05;102030.38;5092240;28;20048;-45
2023/09/30 06:36:16;;;;;;;11.60;5.00;;;;;;;22.50;50.94;102047.41;5089806;28;20040;-45
2023/09/30 06:38:50;;;;;;;15.45;6.30;;;;;;;22.47;50.79;102059.38;5091690;28;20062;-50
2023/09/30 06:41:18;;;;;;;18.27;5.50;;;;;;;22.53;51.12;102071.97;5092383;28;20059;-51
2023/09/30 06:43:46;;;;;;;12.95;4.82;;;;;;;22.58;50.76;102077.38;5089776;28;20048;-45
2023/09/30 06:46:13;;;;;;;10.70;4.82;;;;;;;22.35;51.39;102071.50;5092397;28;20044;-50
2023/09/30 06:48:41;;;;;;;17.38;5.70;;;;;;;21.94;52.46;102055.13;5071047;28;20047;-48
2023/09/30 06:51:17;;;;;;;16.15;4.40;;;;;;;22.25;51.97;102056.00;5091964;28;20043;-48
2023/09/30 06:53:45;;;;;;;11.82;4.82;;;;;;;22.54;50.85;102056.75;5074310;28;20051;-52
2023/09/30 06:56:20;;;;;;;17.15;7.55;;;;;;;22.66;50.36;102070.75;5070210;28;20054;-49
2023/09/30 06:58:48;;;;;;;16.35;6.70;;;;;;;22.51;50.74;102072.31;5056349;28;20067;-47
2023/09/30 07:01:17;;;;;;;12.98;5.57;;;;;;;22.36;51.27;102070.31;5091950;28;20052;-48
2023/09/30 07:03:45;;;;;;;16.05;5.50;;;;;;;22.30;52.66;102057.72;5091683;28;20051;-43
2023/09/30 07:06:12;;;;;;;13.90;5.22;;;;;;;22.55;51.81;102062.03;5091379;28;20450;-46
2023/09/30 07:08:39;;;;;;;11.82;5.53;;;;;;;22.45;51.89;102056.09;5091367;28;20070;-45
2023/09/30 07:11:07;;;;;;;17.00;5.70;;;;;;;22.47;52.31;102057.41;5069477;28;20041;-45
2023/09/30 07:13:35;;;;;;;11.60;5.32;;;;;;;22.58;52.40;102066.13;5091460;28;20047;-47
2023/09/30 07:16:02;;;;;;;13.30;5.90;;;;;;;22.51;52.02;102079.94;5088448;28;20047;-46
2023/09/30 07:18:30;;;;;;;11.27;5.68;;;;;;;22.48;52.26;102075.88;5087374;28;20047;-48
2023/09/30 07:20:57;;;;;;;15.18;6.18;;;;;;;22.55;52.21;102080.88;5088996;28;20048;-48
2023/09/30 07:23:25;;;;;;;14.55;5.15;;;;;;;22.38;52.34;102065.16;5098465;28;20052;-48
2023/09/30 07:25:52;;;;;;;15.65;5.47;;;;;;;22.40;52.35;102071.25;5086527;28;20044;-50
2023/09/30 07:28:20;;;;;;;15.48;6.25;;;;;;;22.23;52.71;102071.56;5087105;28;20060;-49
2023/09/30 07:30:47;;;;;;;20.65;7.18;;;;;;;22.36;52.30;102064.72;5094491;28;20067;-52
2023/09/30 07:33:15;;;;;;;18.10;6.82;;;;;;;22.30;52.66;102068.94;5101769;28;20384;-52
2023/09/30 07:35:42;;;;;;;14.23;5.45;;;;;;;22.30;52.46;102060.53;5100200;28;20039;-48
2023/09/30 07:38:10;;;;;;;20.10;5.70;;;;;;;22.44;52.98;102068.53;5103799;28;20056;-52
2023/09/30 07:40:38;;;;;;;12.70;5.78;;;;;;;22.68;52.11;102057.16;5073199;28;20048;-56
2023/09/30 07:43:10;;;;;;;14.13;5.70;;;;;;;22.87;51.58;102057.22;5085692;28;20419;-52
2023/09/30 07:45:39;;;;;;;16.77;6.10;;;;;;;22.53;52.33;102058.75;5052891;28;20052;-49
2023/09/30 07:48:09;;;;;;;18.23;5.68;;;;;;;22.33;52.27;102054.22;5088065;28;20309;-50
2023/09/30 07:50:38;;;;;;;14.32;6.28;;;;;;;22.32;52.23;102063.78;5073835;28;20051;-51
2023/09/30 07:53:06;;;;;;;12.90;5.28;;;;;;;22.46;52.50;102066.16;5082896;28;20043;-51
2023/09/30 07:55:33;;;;;;;18.65;6.03;;;;;;;21.66;52.03;102060.69;5090431;28;20506;-53
2023/09/30 07:58:01;;;;;;;18.52;5.38;;;;;;;20.69;60.75;102071.19;5084845;28;20051;-50
2023/09/30 08:00:37;;;;;;;19.80;6.93;;;;;;;20.91;59.78;102072.69;5083663;28;20068;-52
2023/09/30 08:03:06;;;;;;;22.00;4.95;;;;;;;20.07;64.74;102082.56;5073424;28;20044;-53
2023/09/30 08:05:33;;;;;;;23.08;5.72;;;;;;;20.36;66.99;102087.25;5061203;28;20495;-53
2023/09/30 08:08:02;;;;;;;21.02;5.88;;;;;;;19.57;59.81;102093.06;5070942;28;20070;-55
2023/09/30 08:10:31;;;;;;;19.63;4.90;;;;;;;20.65;66.40;102089.03;5085562;28;20048;-52
2023/09/30 08:13:02;;;;;;;17.98;5.03;;;;;;;21.83;62.02;102085.66;5088646;28;20059;-53
2023/09/30 08:15:30;;;;;;;19.85;5.72;;;;;;;22.34;60.45;102087.53;5088833;28;20040;-50
2023/09/30 08:17:58;;;;;;;15.25;5.25;;;;;;;22.32;59.16;102084.28;5088436;28;20036;-52
2023/09/30 08:20:26;;;;;;;17.88;5.20;;;;;;;22.28;59.02;102088.16;5088765;28;20503;-55
2023/09/30 08:22:53;;;;;;;17.23;4.95;;;;;;;22.38;58.34;102076.41;5085251;28;20856;-57
2023/09/30 08:25:20;;;;;;;15.75;5.07;;;;;;;22.39;57.49;102082.84;5070360;28;20032;-56
2023/09/30 08:27:49;;;;;;;16.20;5.65;;;;;;;22.30;58.24;102092.22;5081227;28;20059;-51
2023/09/30 08:30:25;;;;;;;22.38;9.77;;;;;;;22.30;57.92;102089.41;5103926;28;20052;-53
2023/09/30 08:32:59;;;;;;;18.98;5.40;;;;;;;22.49;57.40;102088.72;5092051;28;20048;-48
2023/09/30 08:35:26;;;;;;;19.35;5.50;;;;;;;22.76;56.06;102093.50;5089426;28;20081;-49
2023/09/30 08:37:53;;;;;;;16.58;4.97;;;;;;;22.90;55.57;102088.22;5093606;28;20048;-51
2023/09/30 08:40:21;;;;;;;14.25;4.85;;;;;;;22.96;55.15;102094.38;5093895;28;20051;-49
2023/09/30 08:42:52;;;;;;;17.55;5.13;;;;;;;22.98;54.58;102101.25;5093487;28;20427;-52
2023/09/30 08:45:20;;;;;;;17.30;5.15;;;;;;;23.02;54.03;102102.19;5091164;28;20047;-54
2023/09/30 08:47:47;;;;;;;17.00;5.47;;;;;;;22.95;53.83;102101.19;5090729;28;20063;-50
2023/09/30 08:50:16;;;;;;;12.75;4.78;;;;;;;22.92;54.13;102107.53;5088278;28;20514;-51
2023/09/30 08:52:44;;;;;;;18.40;5.07;;;;;;;23.08;53.58;102113.97;5090715;28;20055;-53
2023/09/30 08:55:12;;;;;;;17.67;4.55;;;;;;;23.11;53.24;102113.22;5093171;28;20055;-53
2023/09/30 08:57:42;;;;;;;13.65;4.45;;;;;;;23.06;52.67;102107.88;5093346;28;20081;-50
2023/09/30 09:00:11;;;;;;;16.23;4.82;;;;;;;22.82;53.25;102116.50;5089736;28;20710;-53
2023/09/30 09:02:42;;;;;;;13.23;4.77;;;;;;;22.88;53.67;102112.22;5092930;28;20419;-54
2023/09/30 09:05:11;;;;;;;16.60;5.05;;;;;;;22.92;53.24;102111.16;5093303;28;20056;-49
2023/09/30 09:07:38;;;;;;;16.80;5.47;;;;;;;22.98;53.12;102108.91;5092490;28;20063;-50
2023/09/30 09:10:08;;;;;;;19.08;6.93;;;;;;;23.01;52.88;102114.56;5091369;28;20059;-51
2023/09/30 09:12:38;;;;;;;18.58;5.10;;;;;;;23.04;52.52;102118.66;5091683;28;20040;-48
2023/09/30 09:15:21;;;;;;;15.20;4.68;;;;;;;23.00;52.16;102114.94;5058112;28;20032;-53
2023/09/30 09:17:50;;;;;;;16.83;5.07;;;;;;;22.84;51.60;102117.75;5066301;28;20051;-52
2023/09/30 09:20:23;;;;;;;11.85;4.47;;;;;;;22.98;51.35;102098.44;5083683;28;20051;-50
2023/09/30 09:22:54;;;;;;;12.10;4.47;;;;;;;23.02;50.42;102090.94;5063272;28;20048;-51
2023/09/30 09:25:25;;;;;;;11.88;4.85;;;;;;;23.02;49.96;102098.53;5073544;28;20036;-49
2023/09/30 09:27:53;;;;;;;16.02;4.85;;;;;;;23.01;50.12;102094.13;5090125;28;20048;-49
2023/09/30 09:30:22;;;;;;;12.95;4.93;;;;;;;23.02;49.33;102085.31;5091237;28;20048;-45
2023/09/30 09:32:54;;;;;;;13.25;3.95;;;;;;;23.00;49.19;102086.84;5069537;28;20048;-48
2023/09/30 09:35:22;;;;;;;13.40;4.25;;;;;;;23.01;49.03;102091.31;5090000;28;20044;-46
2023/09/30 09:37:57;;;;;;;15.82;4.43;;;;;;;22.83;49.12;102102.09;5092059;28;20044;-45
2023/09/30 09:40:29;;;;;;;11.10;4.18;;;;;;;22.89;49.54;102108.25;5090372;28;20050;-45
2023/09/30 09:42:57;;;;;;;16.95;4.07;;;;;;;23.06;48.61;102111.53;5069994;28;20139;-47
2023/09/30 09:45:27;;;;;;;16.83;4.90;;;;;;;23.09;48.72;102115.56;5072425;28;20033;-48
2023/09/30 09:47:54;;;;;;;;;;;;;;;23.18;48.47;102108.59;5068619;28;20483;-46
2023/09/30 09:50:22;;;;;;;12.23;4.78;;;;;;;23.20;48.64;102113.84;5069907;28;19920;-48
2023/09/30 09:52:55;;;;;;;14.88;4.63;;;;;;;23.24;48.66;102111.94;5069706;28;20063;-50
2023/09/30 09:55:23;;;;;;;37.85;5.05;;;;;;;23.25;48.62;102110.75;5069096;28;20051;-48
2023/09/30 09:57:51;;;;;;;14.98;4.32;;;;;;;23.18;48.72;102110.59;5065840;28;20068;-48
2023/09/30 10:00:20;;;;;;;12.23;4.57;;;;;;;23.17;48.72;102109.75;5069938;28;20067;-47
2023/09/30 10:02:48;;;;;;;15.93;5.20;;;;;;;23.21;48.67;102110.66;5069256;28;20399;-45
2023/09/30 10:05:16;;;;;;;19.60;4.78;;;;;;;23.14;48.98;102095.63;5066029;28;20048;-44
2023/09/30 10:07:53;;;;;;;13.93;4.22;;;;;;;23.14;48.96;102092.81;5066972;28;20055;-44
2023/09/30 10:10:23;;;;;;;18.83;4.90;;;;;;;22.94;48.80;102079.88;5070623;28;20540;-43
2023/09/30 10:12:50;;;;;;;17.27;5.72;;;;;;;21.54;51.55;102079.53;5070108;28;20048;-43
2023/09/30 10:15:39;;;;;;;13.48;5.30;;;;;;;21.35;52.69;102084.97;5071452;28;20048;-46
2023/09/30 10:18:10;;;;;;;17.08;5.65;;;;;;;20.70;54.25;102080.41;5070703;28;20078;-45
2023/09/30 10:20:44;;;;;;;18.48;5.55;;;;;;;20.14;56.81;102084.81;5068201;28;20053;-48
2023/09/30 10:23:25;;;;;;;17.30;6.00;;;;;;;19.60;58.72;102092.38;5069453;28;20048;-42
2023/09/30 10:26:17;;;;;;;14.48;5.80;;;;;;;19.75;58.25;102099.34;5070256;28;20475;-45
2023/09/30 10:28:50;;;;;;;28.17;7.95;;;;;;;20.53;56.22;102083.41;5078323;28;20036;-48
2023/09/30 10:31:19;;;;;;;25.58;12.35;;;;;;;20.78;56.04;102083.09;5071425;28;20496;-47
2023/09/30 10:34:02;;;;;;;18.23;6.10;;;;;;;20.12;56.53;102076.75;5068545;28;20055;-50
2023/09/30 10:36:39;;;;;;;17.80;6.05;;;;;;;21.21;54.69;102062.91;5070760;28;20761;-43
2023/09/30 10:39:14;;;;;;;20.40;5.85;;;;;;;21.65;53.01;102064.69;5086428;28;20404;-49
2023/09/30 10:41:48;;;;;;;19.60;6.70;;;;;;;20.28;55.38;102068.56;5073872;28;20060;-46
2023/09/30 10:44:22;;;;;;;19.45;5.70;;;;;;;20.03;58.18;102069.63;5073030;28;20063;-49
2023/09/30 10:46:50;;;;;;;21.45;8.93;;;;;;;20.11;56.56;102071.50;5087581;28;20048;-54
2023/09/30 10:49:24;;;;;;;19.42;8.52;;;;;;;20.05;56.38;102076.50;5073181;28;20048;-46
2023/09/30 10:51:56;;;;;;;19.27;6.63;;;;;;;20.24;56.90;102080.78;5086419;28;20047;-47
2023/09/30 10:54:25;;;;;;;14.77;5.82;;;;;;;21.14;54.33;102065.50;5087841;28;20040;-50
2023/09/30 10:56:53;;;;;;;21.73;6.25;;;;;;;21.13;53.50;102064.66;5087406;28;20036;-45
2023/09/30 10:59:25;;;;;;;15.73;6.05;;;;;;;21.36;54.23;102069.78;5070444;28;20051;-48
2023/09/30 11:01:53;;;;;;;21.05;6.40;;;;;;;21.96;52.39;102056.41;5089724;28;20056;-44
2023/09/30 11:04:21;;;;;;;14.52;6.03;;;;;;;21.60;51.59;102062.09;5081485;28;20048;-45
2023/09/30 11:06:51;;;;;;;21.60;6.93;;;;;;;20.85;53.38;102048.91;5087752;28;20143;-47
2023/09/30 11:09:21;;;;;;;21.73;6.93;;;;;;;20.27;55.32;102052.13;5087623;28;20044;-51
2023/09/30 11:11:50;;;;;;;19.35;6.43;;;;;;;20.68;54.89;102043.53;5078908;28;20055;-45
2023/09/30 11:14:19;;;;;;;;;;;;;;;20.75;54.14;102041.78;5045457;28;20063;-60
2023/09/30 11:16:49;;;;;;;24.00;7.13;;;;;;;20.43;55.46;102045.50;5082802;28;19920;-47
2023/09/30 11:19:17;;;;;;;16.42;6.43;;;;;;;20.23;55.76;102035.19;5088392;28;20051;-47
2023/09/30 11:21:44;;;;;;;19.60;7.95;;;;;;;20.01;56.19;102049.56;5067880;28;20051;-44
2023/09/30 11:24:13;;;;;;;18.83;7.72;;;;;;;19.87;56.05;102049.88;5100621;28;20082;-57
2023/09/30 11:26:41;;;;;;;19.10;7.70;;;;;;;20.22;55.38;102049.53;5098072;28;20399;-57